Detalii statie AGRICHIM STEFAN CEL MARE [0000198F]

Toti senzorii

Date Temperatura solului [C]Precipitatii [mm]Voltaj baterie [mV]HC Air temperature [C]HC Relative humidity [%]Punctul de roua [C]
medieminmaxsumaultimamedieminmaxmediemediemin
2018-02-23 13:00:00 1.7 1.7 1.8 0.8 7274 0.3 0.16 0.41 0 0 0
2018-02-23 14:00:00 1.7 1.6 1.9 1.6 7264 1.51 0.59 2.09 0 0 0
2018-02-23 15:00:00 1.9 1.8 2.2 0.8 7254 1.77 1.54 2.36 0 0 0
2018-02-23 16:00:00 2.2 2.1 2.4 0.4 7254 1.37 0.98 1.65 0 0 0
2018-02-23 17:00:00 2.5 2.4 2.7 0.2 7148 0.96 0.78 1.22 0 0 0
2018-02-23 18:00:00 2.5 2.4 2.7 0 7010 0.59 0.33 0.83 0 0 0
2018-02-23 19:00:00 2.6 2.6 2.7 0 6992 0.2 -0.07 0.34 0 0 0
2018-02-23 20:00:00 2.5 2.5 2.7 0 6952 0.09 -0.07 0.33 0 0 0
2018-02-23 21:00:00 2.5 2.3 2.7 0 6932 0.2 0.05 0.33 0 0 0
2018-02-23 22:00:00 2.4 2.4 2.5 0 6932 0.02 -0.02 0.08 0 0 0
2018-02-23 23:00:00 2.3 2.3 2.5 0 6914 -0.29 -0.49 -0.06 0 0 0
2018-02-24 00:00:00 2.3 2.2 2.5 0 6914 -0.52 -0.66 -0.45 0 0 0
2018-02-24 01:00:00 2.2 2.2 2.3 0 6894 -0.67 -0.76 -0.57 0 0 0
2018-02-24 02:00:00 2.1 2 2.2 0 6884 -0.63 -0.72 -0.58 0 0 0
2018-02-24 03:00:00 2 1.8 2.2 0 6884 -0.68 -0.81 -0.62 0 0 0
2018-02-24 04:00:00 1.9 1.8 2.1 0 6874 -0.76 -0.87 -0.63 0 0 0
2018-02-24 05:00:00 1.9 1.7 2 0 6874 -0.53 -0.59 -0.5 0 0 0
2018-02-24 06:00:00 1.9 1.8 2 0 6874 -0.42 -0.49 -0.35 0 0 0
2018-02-24 07:00:00 1.8 1.8 1.9 0 6854 -0.31 -0.36 -0.24 0 0 0
2018-02-24 08:00:00 1.8 1.8 1.9 0 6844 -0.14 -0.24 -0.07 0 0 0
2018-02-24 09:00:00 1.8 1.6 1.9 0 6854 -0.07 -0.13 0 0 0 0
2018-02-24 10:00:00 1.8 1.6 1.9 0 6864 0.15 0.04 0.23 0 0 0
2018-02-24 11:00:00 1.8 1.6 1.9 0 6914 0.17 0.11 0.27 0 0 0
2018-02-24 12:00:00 1.8 1.7 1.9 0 6914 0.07 0.04 0.12 0 0 0
2018-02-24 13:00:00 1.7 1.6 1.9 0 6922 0.05 0.02 0.1 0 0 0
2018-02-24 14:00:00 1.7 1.7 1.9 0 6932 0.22 0.09 0.3 0 0 0
2018-02-24 15:00:00 1.8 1.6 1.9 0 6932 0.12 0 0.26 0 0 0
2018-02-24 16:00:00 1.8 1.8 1.9 0 6874 -0.17 -0.45 -0.02 0 0 0
2018-02-24 17:00:00 1.8 1.8 1.9 0 6874 -0.66 -1.06 -0.41 0 0 0
2018-02-24 18:00:00 1.8 1.6 1.9 0 6854 -1.35 -1.62 -1.1 0 0 0
2018-02-24 19:00:00 1.7 1.7 1.9 0 6834 -1.94 -2.42 -1.6 0 0 0
2018-02-24 20:00:00 1.7 1.6 1.8 0 6816 -2.95 -3.26 -2.44 0 0 0
2018-02-24 21:00:00 1.6 1.4 1.8 0 6816 -3.54 -3.85 -3.35 0 0 0
2018-02-24 22:00:00 1.6 1.4 1.7 0 6806 -4.07 -4.33 -3.8 0 0 0
2018-02-24 23:00:00 1.4 1.4 1.6 0 6796 -4.42 -4.49 -4.34 0 0 0
2018-02-25 00:00:00 1.5 1.5 1.6 0 6776 -4.55 -4.64 -4.51 0 0 0
2018-02-25 01:00:00 1.4 1.3 1.6 0 6748 -4.46 -4.51 -4.39 0 0 0
2018-02-25 02:00:00 1.4 1.3 1.6 0 6766 -4.4 -4.42 -4.39 0 0 0
2018-02-25 03:00:00 1.3 1.3 1.4 0 6766 -4.47 -4.52 -4.43 0 0 0
2018-02-25 04:00:00 1.3 1.1 1.4 0 6776 -4.67 -4.89 -4.54 0 0 0
2018-02-25 05:00:00 1.3 1.2 1.4 0 6776 -5.12 -5.26 -4.94 0 0 0
2018-02-25 06:00:00 1.2 1.1 1.3 0 6776 -5.64 -6.05 -5.3 0 0 0
2018-02-25 07:00:00 1.2 1.1 1.4 0 6766 -6.42 -6.6 -6.14 0 0 0
2018-02-25 08:00:00 1.1 1.1 1.2 0 6796 -6.52 -6.61 -6.37 0 0 0
2018-02-25 09:00:00 1.1 1.1 1.3 0 6992 -6.31 -6.46 -6.04 0 0 0
2018-02-25 10:00:00 1 0.9 1.2 0 7254 -5.61 -5.87 -5 0 0 0
2018-02-25 11:00:00 1 0.9 1.2 0 7236 -4.58 -4.78 -4.28 0 0 0
2018-02-25 12:00:00 1 0.9 1.1 0 7206 -4.31 -4.51 -4.04 0 0 0